Glenarden, Maryland
Current Conditions -  °F | °C
As of 9:58 PM on Saturday 27 Dec 2014 (Local Time) from KADW Reporting Station
Scattered Clouds Scattered Clouds  
Wind Chill: 44°   Ceiling: Unl
Heat Index: 44°   Visibility: 10mi
Dew Point: 36°   Wind: 3mph
Humidity: 71%   Direction: 160°SSE
Pressure: 30.13"   Gusts: NA
Location:  38.8741°N, 76.7678°W
Report Text: KADW 280258Z AUTO 16003KT 10SM SCT210 07/02 A3013 RMK AO2 SLP211 T00690020 57014 $
Loading
Personal Weather Stations






























Interactive Weather Map New forecast layout! Learn more

10-Day Weather Forecast

Advertisements
Track Severe Weather on mobile